Saturday, July 26, 2014
05:12 UTC
  |  Log In   |  Register Free
Airport Search:

Tyler Pounds Regional Airport
(KTYR)

Tyler Pounds Regional Airport Diagram
No Airport Diagram Available

FAA data valid effective July 24, 2014 until September 18, 2014 (unless otherwise noted).

 
 
 
 
 
 
 
 
 
 
 
 
 
 

Current Aviation Weather for Tyler Pounds Regional Airport (KTYR)

The most recent METAR observation for KTYR was updated at: 0353 UTC
METAR Summary (Translated METAR)
KTYR
260353Z 16004KT 10SM CLR 27/22 A2998 RMK AO2 SLP144 T02670222
KJDD
(23.8 nm NW from KTYR)
260435Z AUTO 16004KT 10SM CLR 27/23 A2999 RMK AO2
TAF Summary (Translated TAF)
KTYR
251730Z 2518/2618 21006KT P6SM SCT030 SCT250 FM260300 17005KT P6SM SKC FM261200 20008KT P6SM FEW250
  Airport Weather Conditions for KTYR

 Current Weather at TYR
80° F
Fair
South winds at 4.6 mph
TYR NOAA Radar

Pressure: 29.98 in
Humidity: 76%
Wind: South at 4.6 MPH (4 KT)
Dew Point: 72.0°F
Visibility: 10.00 mi


Airport Weather Forecast for KTYR

Translated METAR and TAF for KTYR
Translated METAR for KTYR (0506 UTC 26 July 2014)
found at http://aviationweather.gov/adds/metars/
 
METAR text: KTYR 260453Z 15004KT 10SM CLR 26/22 A2999 RMK AO2 SLP147 T02560222
Conditions at: KTYR (TYLER , TX, US) observed 0453 UTC 26 July 2014
Temperature: 25.6°C (78°F)
Dewpoint: 22.2°C (72°F) [RH = 82%]
Pressure (altimeter): 29.99 inches Hg (1015.7 mb)
[Sea-level pressure: 1014.7 mb]
Winds: from the SSE (150 degrees) at 5 MPH (4 knots; 2.1 m/s)
Visibility: 10 or more miles (16+ km)
Ceiling: at least 12,000 feet AGL
Clouds: sky clear below 12,000 feet AGL
Weather: no significant weather observed at this time
Translated TAF for KTYR
Forecast for: KTYR (TYLER , TX, US)
TAF Text: KTYR 252339Z 2600/2624 17008KT P6SM SKC
Forecast period: 0000 to 0300 UTC 26 July 2014
Forecast type: FROM: standard forecast or significant change
Winds: from the S (170 degrees) at 9 MPH (8 knots; 4.2 m/s)
Visibility: 6 or more miles (10+ km)
Clouds: clear skies
Weather: no significant weather forecast for this period
TAF Text: FM260300 17005KT P6SM SKC
Forecast period: 0300 to 1200 UTC 26 July 2014
Forecast type: FROM: standard forecast or significant change
Winds: from the S (170 degrees) at 6 MPH (5 knots; 2.6 m/s)
Visibility: 6 or more miles (10+ km)
Clouds: clear skies
Weather: no significant weather forecast for this period
TAF Text: FM261200 20008KT P6SM FEW250
Forecast period: 1200 UTC 26 July 2014 to 0000 UTC 27 July 2014
Forecast type: FROM: standard forecast or significant change
Winds: from the SSW (200 degrees) at 9 MPH (8 knots; 4.2 m/s)
Visibility: 6 or more miles (10+ km)
Clouds: few clouds at 25000 feet AGL
Weather: no significant weather forecast for this period

Find All Airport Services Find A Hotel Find A Rental Car Find A Golf Course Find A Restaurant $100 Hamburger



FBO's on the Field
FBO Company Facility Photos Services Transportation Aviation Fuel Prices: Prices include tax
Catering Weather Repair Courtesy Rental Type 100LL JetA JetA+ MOGAS 8087
 
Jet Center of Tyler

Currently rated 5 by 1 person
FS:Phillips66
Last Updated: Jul-23
Login to update fuel prices
SS:
Contact Jet Center of TylerMore FBO Information
 
Johnson Aviation, Inc

Currently rated 3.2 by 1 person
FS:Avfuel
Last Updated: Jul-21
Login to update fuel prices
SS:
Contact Johnson Aviation, IncMore FBO Information
 
Add another FBO Facility Photos Catering Weather Repair Courtesy Rental Type 100LL JetA JetA+ MOGAS 8087
Services Transportation Aviation Fuel Prices: Prices include tax


GlobalAir.com Airport Resource Center model-print
model-print
model-print
model-print